createdAt,value
2019-04-23T00:02:24.523Z,3.00
2019-04-23T00:04:54.182Z,2.73
2019-04-23T00:07:37.183Z,3.70
2019-04-23T00:09:59.313Z,3.03
2019-04-23T00:12:38.079Z,3.07
2019-04-23T00:15:06.113Z,2.77
2019-04-23T00:17:32.055Z,2.63
2019-04-23T00:20:03.737Z,3.33
2019-04-23T00:22:45.108Z,2.70
2019-04-23T00:27:47.706Z,3.10
2019-04-23T00:30:12.365Z,3.00
2019-04-23T00:32:40.343Z,3.30
2019-04-23T00:35:14.781Z,2.97
2019-04-23T00:37:45.790Z,3.47
2019-04-23T00:40:11.347Z,2.70
2019-04-23T00:42:47.418Z,3.00
2019-04-23T00:45:24.607Z,3.90
2019-04-23T00:47:51.420Z,3.10
2019-04-23T00:52:45.705Z,3.40
2019-04-23T00:55:15.492Z,3.60
2019-04-23T00:57:41.677Z,3.30
2019-04-23T01:00:23.817Z,3.43
2019-04-23T01:02:45.802Z,3.40
2019-04-23T01:05:20.267Z,3.53
2019-04-23T01:07:45.714Z,3.83
2019-04-23T01:10:20.534Z,3.30
2019-04-23T01:12:51.589Z,3.20
2019-04-23T01:15:25.826Z,4.43
2019-04-23T01:17:57.756Z,3.97
2019-04-23T01:20:29.262Z,3.57
2019-04-23T01:22:36.393Z,4.20
2019-04-23T01:25:23.721Z,3.27
2019-04-23T01:28:08.070Z,3.00
2019-04-23T01:30:38.764Z,3.27
2019-04-23T01:33:14.208Z,3.60
2019-04-23T01:35:36.447Z,3.63
2019-04-23T01:38:04.820Z,3.33
2019-04-23T01:40:39.374Z,3.87
2019-04-23T01:43:10.902Z,4.33
2019-04-23T01:45:30.770Z,3.93
2019-04-23T01:48:08.898Z,4.60
2019-04-23T01:50:43.701Z,3.57
2019-04-23T01:53:14.969Z,4.00
2019-04-23T01:55:43.756Z,4.13
2019-04-23T01:58:25.845Z,4.00
2019-04-23T02:00:41.018Z,4.80
2019-04-23T02:03:15.516Z,3.87
2019-04-23T02:05:41.350Z,4.50
2019-04-23T02:08:13.527Z,4.90
2019-04-23T02:10:53.690Z,4.97
2019-04-23T02:13:16.589Z,4.00
2019-04-23T02:15:42.419Z,3.73
2019-04-23T02:20:47.270Z,4.53
2019-04-23T02:23:24.641Z,4.03
2019-04-23T02:25:53.816Z,4.40
2019-04-23T02:28:19.068Z,4.13
2019-04-23T02:31:12.589Z,4.90
2019-04-23T02:38:38.841Z,4.30
2019-04-23T02:41:03.718Z,4.73
2019-04-23T02:43:20.153Z,4.27
2019-04-23T02:46:04.412Z,4.97
2019-04-23T02:50:53.946Z,5.90
2019-04-23T02:58:43.253Z,4.07
2019-04-23T03:01:14.844Z,4.67
2019-04-23T03:05:57.359Z,4.83
2019-04-23T03:11:18.341Z,4.97
2019-04-23T03:13:35.010Z,5.27
2019-04-23T03:16:06.326Z,4.40
2019-04-23T03:26:47.815Z,5.37
2019-04-23T03:29:10.694Z,4.63
2019-04-23T03:34:01.061Z,5.40
2019-04-23T03:38:55.532Z,5.20
2019-04-23T03:41:43.855Z,5.60
2019-04-23T03:44:05.203Z,5.00
2019-04-23T03:49:19.562Z,5.33
2019-04-23T03:51:43.072Z,6.17
2019-04-23T03:57:03.258Z,5.63
2019-04-23T03:59:15.521Z,6.30
2019-04-23T04:02:03.492Z,6.23
2019-04-23T04:11:27.546Z,6.37
2019-04-23T04:14:20.757Z,6.37
2019-04-23T04:16:42.521Z,6.53
2019-04-23T04:19:16.830Z,6.83
2019-04-23T04:21:39.039Z,6.57
2019-04-23T04:29:15.156Z,6.43
2019-04-23T04:39:08.290Z,7.00
2019-04-23T04:46:45.905Z,5.83
2019-04-23T04:49:15.239Z,7.27
2019-04-23T04:56:43.102Z,6.23
2019-04-23T05:01:54.211Z,6.43
2019-04-23T05:04:19.863Z,6.47
2019-04-23T05:06:59.387Z,7.10
2019-04-23T05:14:13.520Z,6.50
2019-04-23T05:16:47.048Z,7.30
2019-04-23T05:19:27.364Z,7.40
2019-04-23T05:24:14.858Z,7.27
2019-04-23T05:26:30.380Z,7.10
2019-04-23T05:29:11.211Z,6.70
2019-04-23T05:31:42.148Z,7.07
2019-04-23T05:34:08.040Z,6.30
2019-04-23T05:41:42.107Z,7.13
2019-04-23T05:44:15.742Z,7.43
2019-04-23T05:49:10.952Z,6.45
2019-04-23T05:51:54.255Z,7.40
2019-04-23T05:56:44.280Z,5.60
2019-04-23T06:04:21.598Z,6.37
2019-04-23T06:11:55.495Z,9.30
2019-04-23T06:22:10.720Z,5.90
2019-04-23T06:24:21.154Z,6.13
2019-04-23T06:29:20.879Z,6.30
2019-04-23T06:31:49.235Z,5.70
2019-04-23T06:36:46.050Z,6.10
2019-04-23T06:39:15.812Z,6.00
2019-04-23T06:41:50.025Z,8.70
2019-04-23T06:44:25.404Z,7.20
2019-04-23T06:47:01.786Z,6.00
2019-04-23T06:49:24.691Z,6.37
2019-04-23T06:54:19.195Z,5.67
2019-04-23T06:57:05.122Z,5.23
2019-04-23T06:59:24.716Z,6.10
2019-04-23T07:04:18.797Z,5.47
2019-04-23T07:06:58.123Z,5.40
2019-04-23T07:09:14.778Z,5.30
2019-04-23T07:12:05.221Z,5.73
2019-04-23T07:14:12.011Z,4.50
2019-04-23T07:16:46.477Z,5.70
2019-04-23T07:19:26.933Z,4.83
2019-04-23T07:21:51.373Z,5.40
2019-04-23T07:24:15.291Z,5.20
2019-04-23T07:26:42.310Z,5.70
2019-04-23T07:29:18.970Z,5.60
2019-04-23T07:31:54.566Z,4.87
2019-04-23T07:34:18.750Z,4.60
2019-04-23T07:36:49.396Z,5.10
2019-04-23T07:39:47.247Z,5.13
2019-04-23T07:42:29.306Z,4.80
2019-04-23T07:44:59.490Z,5.30
2019-04-23T07:47:28.262Z,5.13
2019-04-23T07:50:09.856Z,4.63
2019-04-23T07:52:33.822Z,4.50
2019-04-23T07:55:06.612Z,5.40
2019-04-23T07:57:35.013Z,6.37
2019-04-23T08:00:02.602Z,9.13
2019-04-23T08:02:29.945Z,8.30
2019-04-23T08:05:11.270Z,5.30
2019-04-23T08:07:35.728Z,5.47
2019-04-23T08:10:02.314Z,5.27
2019-04-23T08:12:31.513Z,5.73
2019-04-23T08:15:07.441Z,4.30
2019-04-23T08:17:27.826Z,4.53
2019-04-23T08:20:07.467Z,4.40
2019-04-23T08:22:32.349Z,3.90
2019-04-23T08:25:05.003Z,4.23
2019-04-23T08:27:34.799Z,4.70
2019-04-23T08:30:15.565Z,4.90
2019-04-23T08:32:27.455Z,3.80
2019-04-23T08:35:10.909Z,3.97
2019-04-23T08:38:00.948Z,4.60
2019-04-23T08:40:06.665Z,3.83
2019-04-23T08:42:49.647Z,4.00
2019-04-23T08:47:52.594Z,3.60
2019-04-23T08:50:21.804Z,4.70
2019-04-23T08:52:54.015Z,4.10
2019-04-23T08:55:22.726Z,3.60
2019-04-23T08:57:43.791Z,3.37
2019-04-23T09:00:14.448Z,4.40
2019-04-23T09:02:47.803Z,4.03
2019-04-23T09:05:23.502Z,4.20
2019-04-23T09:07:53.866Z,3.47
2019-04-23T09:10:20.407Z,4.03
2019-04-23T09:12:55.236Z,4.07
2019-04-23T09:15:23.453Z,3.87
2019-04-23T09:20:21.777Z,4.20
2019-04-23T09:22:42.218Z,3.90
2019-04-23T09:25:29.942Z,3.30
2019-04-23T09:27:45.425Z,3.33
2019-04-23T09:30:18.816Z,3.37
2019-04-23T09:32:53.875Z,3.50
2019-04-23T09:35:42.759Z,4.50
2019-04-23T09:38:39.886Z,3.47
2019-04-23T09:41:09.801Z,3.63
2019-04-23T09:43:27.310Z,3.73
2019-04-23T09:46:15.487Z,4.30
2019-04-23T09:48:44.269Z,4.00
2019-04-23T09:51:09.260Z,3.70
2019-04-23T09:53:58.034Z,3.43
2019-04-23T09:56:05.076Z,3.27
2019-04-23T09:58:37.940Z,3.47
2019-04-23T10:01:29.321Z,4.17
2019-04-23T10:03:43.067Z,4.00
2019-04-23T10:06:11.765Z,4.20
2019-04-23T10:08:38.162Z,4.47
2019-04-23T10:11:02.900Z,3.40
2019-04-23T10:13:31.768Z,4.87
2019-04-23T10:16:00.213Z,4.17
2019-04-23T10:18:29.125Z,3.80
2019-04-23T10:20:57.582Z,4.40
2019-04-23T10:23:27.283Z,3.90
2019-04-23T10:25:56.346Z,3.77
2019-04-23T10:28:29.676Z,3.43
2019-04-23T10:30:58.714Z,3.87
2019-04-23T10:33:27.665Z,3.90
2019-04-23T10:36:02.702Z,3.90
2019-04-23T10:38:28.147Z,4.30
2019-04-23T10:40:57.966Z,3.97
2019-04-23T10:43:28.285Z,3.80
2019-04-23T10:46:21.502Z,5.23
2019-04-23T10:49:10.796Z,4.43
2019-04-23T10:51:40.985Z,3.67
2019-04-23T10:54:32.110Z,3.47
2019-04-23T10:56:46.330Z,3.13
2019-04-23T10:59:35.053Z,4.07
2019-04-23T11:02:25.400Z,3.80
2019-04-23T11:07:20.812Z,3.27
2019-04-23T11:09:52.867Z,3.17
2019-04-23T11:12:32.491Z,2.80
2019-04-23T11:14:53.056Z,3.40
2019-04-23T11:17:30.345Z,3.17
2019-04-23T11:19:56.774Z,4.27
2019-04-23T11:22:38.878Z,3.83
2019-04-23T11:24:48.356Z,4.50
2019-04-23T11:27:22.592Z,4.37
2019-04-23T11:29:50.559Z,3.27
2019-04-23T11:32:41.178Z,4.80
2019-04-23T11:37:35.745Z,3.30
2019-04-23T11:39:49.623Z,3.90
2019-04-23T11:42:18.831Z,2.80
2019-04-23T11:47:46.471Z,2.70
2019-04-23T11:49:55.208Z,3.40
2019-04-23T11:52:32.809Z,4.37
2019-04-23T11:54:53.013Z,3.50
2019-04-23T12:02:40.276Z,3.83
2019-04-23T12:05:17.151Z,3.50
2019-04-23T12:07:34.865Z,2.60
2019-04-23T12:10:22.267Z,3.10
2019-04-23T12:12:57.605Z,3.80
2019-04-23T12:15:21.411Z,4.47
2019-04-23T12:20:23.684Z,3.90
2019-04-23T12:22:57.119Z,3.70
2019-04-23T12:25:39.246Z,3.97
2019-04-23T12:30:25.196Z,3.60
2019-04-23T12:32:53.609Z,3.03
2019-04-23T12:35:17.694Z,3.40
2019-04-23T12:45:29.039Z,3.60
2019-04-23T12:47:58.289Z,3.90
2019-04-23T12:52:54.211Z,4.80
2019-04-23T12:55:34.112Z,4.53
2019-04-23T12:57:55.255Z,3.33
2019-04-23T13:00:29.589Z,3.40
2019-04-23T13:05:27.052Z,3.43
2019-04-23T13:08:02.058Z,3.60
2019-04-23T13:10:30.148Z,2.83
2019-04-23T13:13:11.390Z,3.27
2019-04-23T13:20:27.354Z,10.00
2019-04-23T13:23:01.719Z,8.70
2019-04-23T13:25:35.136Z,4.43
2019-04-23T13:28:12.981Z,3.40
2019-04-23T13:35:48.680Z,4.60
2019-04-23T13:38:12.504Z,4.43
2019-04-23T13:43:01.395Z,4.70
2019-04-23T13:50:42.062Z,4.77
2019-04-23T13:55:38.676Z,4.10
2019-04-23T13:58:20.761Z,4.60
2019-04-23T14:03:09.573Z,3.60
2019-04-23T14:05:41.190Z,4.27
2019-04-23T14:08:41.766Z,4.73
2019-04-23T14:10:48.083Z,3.73
2019-04-23T14:15:55.770Z,3.80
2019-04-23T14:21:12.705Z,3.67
2019-04-23T14:26:01.595Z,5.00
2019-04-23T14:28:22.842Z,4.77
2019-04-23T14:30:53.454Z,4.30
2019-04-23T14:35:45.386Z,4.20
2019-04-23T14:41:07.779Z,4.73
2019-04-23T14:43:40.262Z,5.00
2019-04-23T14:46:33.734Z,5.50
2019-04-23T14:48:39.219Z,5.60
2019-04-23T14:50:56.883Z,4.63
2019-04-23T14:53:40.919Z,4.67
2019-04-23T14:58:36.070Z,5.50
2019-04-23T15:01:16.129Z,4.93
2019-04-23T15:03:32.890Z,4.40
2019-04-23T15:06:12.362Z,4.13
2019-04-23T15:08:39.765Z,3.87
2019-04-23T15:11:13.079Z,6.00
2019-04-23T15:13:27.562Z,5.40
2019-04-23T15:16:07.709Z,5.20
2019-04-23T15:18:53.348Z,4.50
2019-04-23T15:21:43.335Z,4.80
2019-04-23T15:24:00.218Z,4.50
2019-04-23T15:28:26.089Z,4.60
2019-04-23T15:31:19.371Z,4.57
2019-04-23T15:33:58.991Z,5.20
2019-04-23T15:38:52.863Z,4.70
2019-04-23T15:41:23.728Z,4.70
2019-04-23T15:43:53.253Z,4.03
2019-04-23T15:48:57.499Z,4.33
2019-04-23T15:51:31.028Z,5.10
2019-04-23T15:53:53.187Z,5.23
2019-04-23T15:56:26.874Z,5.30
2019-04-23T15:59:04.350Z,5.33
2019-04-23T16:03:24.366Z,5.13
2019-04-23T16:05:52.983Z,4.60
2019-04-23T16:08:58.906Z,5.30
2019-04-23T16:11:36.507Z,5.47
2019-04-23T16:19:05.393Z,4.57
2019-04-23T16:21:41.612Z,4.87
2019-04-23T16:31:35.993Z,4.97
2019-04-23T16:34:15.796Z,4.53
2019-04-23T16:36:32.914Z,4.93
2019-04-23T16:39:09.135Z,4.30
2019-04-23T16:41:39.890Z,4.10
2019-04-23T16:44:16.886Z,5.07
2019-04-23T16:46:33.905Z,4.40
2019-04-23T16:49:12.748Z,3.87
2019-04-23T16:51:32.461Z,4.00
2019-04-23T16:54:09.973Z,4.10
2019-04-23T16:56:55.412Z,4.33
2019-04-23T17:01:35.183Z,3.70
2019-04-23T17:04:11.789Z,4.67
2019-04-23T17:06:36.336Z,7.53
2019-04-23T17:11:33.953Z,4.23
2019-04-23T17:14:09.197Z,4.03
2019-04-23T17:19:13.281Z,3.50
2019-04-23T17:21:36.726Z,4.10
2019-04-23T17:24:14.556Z,3.20
2019-04-23T17:26:39.306Z,3.63
2019-04-23T17:31:41.569Z,3.63
2019-04-23T17:34:17.195Z,4.07
2019-04-23T17:36:38.520Z,3.60
2019-04-23T17:39:27.034Z,3.77
2019-04-23T17:42:18.475Z,3.60
2019-04-23T17:44:55.247Z,2.90
2019-04-23T17:47:17.730Z,3.10
2019-04-23T17:49:51.193Z,3.57
2019-04-23T17:52:26.339Z,3.03
2019-04-23T17:54:51.786Z,3.40
2019-04-23T17:57:15.024Z,3.63
2019-04-23T18:00:08.436Z,3.37
2019-04-23T18:02:51.717Z,4.67
2019-04-23T18:07:32.275Z,3.87
2019-04-23T18:09:58.529Z,4.30
2019-04-23T18:12:37.242Z,3.87
2019-04-23T18:14:59.442Z,3.37
2019-04-23T18:17:30.483Z,3.80
2019-04-23T18:22:48.788Z,3.90
2019-04-23T18:27:46.855Z,5.20
2019-04-23T18:30:20.384Z,9.23
2019-04-23T18:40:20.008Z,3.90
2019-04-23T18:42:53.554Z,4.50
2019-04-23T18:45:31.590Z,3.80
2019-04-23T18:47:54.472Z,4.53
2019-04-23T18:50:43.231Z,4.30
2019-04-23T18:53:09.736Z,4.43
2019-04-23T18:57:57.373Z,4.20
2019-04-23T19:00:36.445Z,3.63
2019-04-23T19:03:01.217Z,4.30
2019-04-23T19:08:21.317Z,4.53
2019-04-23T19:11:07.243Z,3.70
2019-04-23T19:13:32.302Z,3.83
2019-04-23T19:15:50.639Z,3.83
2019-04-23T19:21:07.761Z,3.80
2019-04-23T19:23:25.933Z,3.67
2019-04-23T19:25:43.742Z,3.53
2019-04-23T19:28:39.199Z,3.90
2019-04-23T19:30:55.409Z,3.67
2019-04-23T19:33:29.521Z,3.40
2019-04-23T19:36:13.782Z,4.00
2019-04-23T19:38:27.575Z,4.03
2019-04-23T19:40:55.245Z,3.63
2019-04-23T19:43:47.357Z,3.90
2019-04-23T19:46:00.928Z,3.73
2019-04-23T19:48:36.289Z,3.87
2019-04-23T19:51:03.125Z,3.53
2019-04-23T19:53:43.687Z,3.40
2019-04-23T19:56:09.416Z,3.40
2019-04-23T19:58:34.665Z,3.63
2019-04-23T20:01:11.794Z,3.80
2019-04-23T20:06:06.337Z,3.70
2019-04-23T20:08:53.273Z,3.40
2019-04-23T20:10:54.840Z,3.67
2019-04-23T20:13:42.493Z,3.67
2019-04-23T20:18:42.862Z,3.40
2019-04-23T20:23:47.779Z,3.57
2019-04-23T20:32:29.001Z,3.73
2019-04-23T20:34:24.189Z,3.30
2019-04-23T20:36:46.140Z,3.60
2019-04-23T20:44:39.567Z,3.30
2019-04-23T20:54:45.670Z,3.17
2019-04-23T20:57:25.247Z,3.53
2019-04-23T21:00:01.525Z,2.90
2019-04-23T21:02:28.339Z,3.40
2019-04-23T21:05:01.461Z,3.40
2019-04-23T21:07:30.549Z,3.87
2019-04-23T21:10:12.547Z,3.60
2019-04-23T21:12:27.807Z,3.43
2019-04-23T21:17:24.778Z,3.50
2019-04-23T21:20:00.929Z,3.53
2019-04-23T21:22:20.529Z,3.87
2019-04-23T21:27:38.643Z,3.37
2019-04-23T21:32:35.555Z,3.17
2019-04-23T21:35:07.980Z,3.90
2019-04-23T21:37:47.372Z,3.70
2019-04-23T21:40:27.371Z,3.37
2019-04-23T21:42:57.244Z,3.60
2019-04-23T21:45:26.074Z,3.20
2019-04-23T21:50:31.423Z,3.67
2019-04-23T21:55:20.506Z,4.30
2019-04-23T21:57:59.691Z,3.83
2019-04-23T22:00:14.262Z,3.20
2019-04-23T22:03:02.431Z,4.03
2019-04-23T22:05:24.332Z,3.70
2019-04-23T22:08:02.010Z,4.23
2019-04-23T22:10:17.827Z,3.70
2019-04-23T22:13:02.211Z,4.17
2019-04-23T22:15:21.355Z,3.73
2019-04-23T22:17:49.928Z,4.60
2019-04-23T22:25:25.250Z,3.40
2019-04-23T22:27:55.067Z,4.10
2019-04-23T22:33:11.310Z,3.90
2019-04-23T22:35:24.430Z,4.00
2019-04-23T22:38:02.500Z,4.30
2019-04-23T22:40:15.211Z,3.57
2019-04-23T22:43:08.661Z,3.93
2019-04-23T22:45:28.351Z,3.90
2019-04-23T22:47:56.106Z,3.40
2019-04-23T22:53:00.375Z,3.70
2019-04-23T22:55:28.195Z,4.03
2019-04-23T22:58:08.202Z,4.13
2019-04-23T23:00:24.793Z,3.90
2019-04-23T23:03:06.256Z,4.27
2019-04-23T23:05:56.254Z,4.63
2019-04-23T23:08:16.642Z,3.80
2019-04-23T23:10:46.145Z,4.00
2019-04-23T23:13:20.561Z,4.20
2019-04-23T23:15:49.276Z,4.20
2019-04-23T23:25:51.552Z,4.60
2019-04-23T23:30:55.146Z,3.87
2019-04-23T23:33:17.313Z,3.77
2019-04-23T23:38:27.112Z,4.00
2019-04-23T23:41:00.830Z,3.57
2019-04-23T23:43:25.912Z,4.03
2019-04-23T23:45:55.848Z,4.30
2019-04-23T23:50:54.704Z,4.40
2019-04-23T23:53:24.966Z,4.13
2019-04-23T23:55:58.499Z,4.90
2019-04-23T23:58:25.310Z,5.43
